createdAt,value
2023-05-22T00:00:10.131Z,57.28
2023-05-22T00:01:21.496Z,57.29
2023-05-22T00:02:29.570Z,57.26
2023-05-22T00:03:36.799Z,57.61
2023-05-22T00:04:43.765Z,57.66
2023-05-22T00:05:48.662Z,57.54
2023-05-22T00:06:54.460Z,57.50
2023-05-22T00:08:00.078Z,57.81
2023-05-22T00:09:04.299Z,57.66
2023-05-22T00:10:09.624Z,57.49
2023-05-22T00:11:13.826Z,57.70
2023-05-22T00:12:19.517Z,57.73
2023-05-22T00:13:22.871Z,57.50
2023-05-22T00:14:27.160Z,57.67
2023-05-22T00:15:31.120Z,57.94
2023-05-22T00:16:37.292Z,58.22
2023-05-22T00:19:05.195Z,58.19
2023-05-22T00:20:13.175Z,58.15
2023-05-22T00:21:20.473Z,58.12
2023-05-22T00:22:23.780Z,58.55
2023-05-22T00:23:30.733Z,58.49
2023-05-22T00:24:34.420Z,58.56
2023-05-22T00:25:39.569Z,58.70
2023-05-22T00:26:43.919Z,58.71
2023-05-22T00:27:50.042Z,59.07
2023-05-22T00:28:54.560Z,58.97
2023-05-22T00:30:00.974Z,59.17
2023-05-22T00:31:06.353Z,59.30
2023-05-22T00:32:12.440Z,59.36
2023-05-22T00:33:16.494Z,59.60
2023-05-22T00:34:22.635Z,59.74
2023-05-22T00:35:27.449Z,59.77
2023-05-22T00:36:33.646Z,60.00
2023-05-22T00:37:37.861Z,60.02
2023-05-22T00:38:41.555Z,60.33
2023-05-22T00:39:45.851Z,60.20
2023-05-22T00:40:49.864Z,60.47
2023-05-22T00:41:53.514Z,60.45
2023-05-22T00:42:59.283Z,60.38
2023-05-22T00:44:03.067Z,60.61
2023-05-22T00:45:09.690Z,60.71
2023-05-22T00:46:13.875Z,60.77
2023-05-22T00:47:17.940Z,60.78
2023-05-22T00:48:21.912Z,60.84
2023-05-22T00:49:27.869Z,60.93
2023-05-22T00:50:33.864Z,61.13
2023-05-22T00:51:37.665Z,61.02
2023-05-22T00:52:45.854Z,61.44
2023-05-22T00:53:49.536Z,61.38
2023-05-22T00:54:56.520Z,61.55
2023-05-22T00:56:00.396Z,61.60
2023-05-22T00:57:06.260Z,61.81
2023-05-22T00:58:11.986Z,61.67
2023-05-22T00:59:16.897Z,62.17
2023-05-22T01:00:21.089Z,62.03
2023-05-22T01:01:26.847Z,62.12
2023-05-22T01:02:33.193Z,61.90
2023-05-22T01:03:45.667Z,62.15
2023-05-22T01:04:50.441Z,61.96
2023-05-22T01:05:58.508Z,62.13
2023-05-22T01:07:03.332Z,62.28
2023-05-22T01:08:10.154Z,62.22
2023-05-22T01:09:14.879Z,62.44
2023-05-22T01:10:19.497Z,62.32
2023-05-22T01:11:28.718Z,62.48
2023-05-22T01:12:40.268Z,62.39
2023-05-22T01:13:53.430Z,62.64
2023-05-22T01:15:06.914Z,62.90
2023-05-22T01:16:20.056Z,62.81
2023-05-22T01:17:36.200Z,62.89
2023-05-22T01:18:46.238Z,63.05
2023-05-22T01:20:08.252Z,63.21
2023-05-22T01:21:23.105Z,63.16
2023-05-22T01:22:36.850Z,63.34
2023-05-22T01:24:02.926Z,63.56
2023-05-22T01:25:31.393Z,63.43
2023-05-22T01:27:05.656Z,63.48
2023-05-22T01:28:22.509Z,63.75
2023-05-22T01:29:43.360Z,63.88
2023-05-22T01:30:55.361Z,63.84
2023-05-22T01:32:02.578Z,63.90
2023-05-22T01:33:08.287Z,63.94
2023-05-22T01:34:14.902Z,63.94
2023-05-22T01:35:19.035Z,63.65
2023-05-22T01:36:26.316Z,63.62
2023-05-22T01:37:32.244Z,63.43
2023-05-22T01:38:37.157Z,63.50
2023-05-22T01:39:42.804Z,63.27
2023-05-22T01:40:48.962Z,63.30
2023-05-22T01:41:53.773Z,62.97
2023-05-22T01:42:58.070Z,63.32
2023-05-22T01:44:02.848Z,63.47
2023-05-22T01:45:10.238Z,63.04
2023-05-22T01:46:16.908Z,63.04
2023-05-22T01:47:22.939Z,63.11
2023-05-22T01:48:26.740Z,62.93
2023-05-22T01:49:32.908Z,62.68
2023-05-22T01:50:36.490Z,62.73
2023-05-22T01:51:53.955Z,62.53
2023-05-22T01:53:05.160Z,62.63
2023-05-22T01:54:25.254Z,62.51
2023-05-22T01:55:37.585Z,62.52
2023-05-22T01:56:47.171Z,62.41
2023-05-22T01:58:04.925Z,62.41
2023-05-22T01:59:16.802Z,62.25
2023-05-22T02:00:23.858Z,62.12
2023-05-22T02:01:32.691Z,62.42
2023-05-22T02:02:39.848Z,62.26
2023-05-22T02:03:44.433Z,62.20
2023-05-22T02:04:57.499Z,62.20
2023-05-22T02:06:06.074Z,62.39
2023-05-22T02:07:13.645Z,62.04
2023-05-22T02:08:18.508Z,62.29
2023-05-22T02:09:26.022Z,62.27
2023-05-22T02:10:30.869Z,62.36
2023-05-22T02:11:38.068Z,62.22
2023-05-22T02:12:42.783Z,62.44
2023-05-22T02:13:46.488Z,62.54
2023-05-22T02:14:51.580Z,62.61
2023-05-22T02:15:58.376Z,62.55
2023-05-22T02:17:03.787Z,62.63
2023-05-22T02:18:13.621Z,62.48
2023-05-22T02:19:18.758Z,62.88
2023-05-22T02:20:22.112Z,62.55
2023-05-22T02:21:27.112Z,62.58
2023-05-22T02:22:30.761Z,62.64
2023-05-22T02:23:44.084Z,62.53
2023-05-22T02:24:51.009Z,62.68
2023-05-22T02:25:55.620Z,62.53
2023-05-22T02:27:00.274Z,62.64
2023-05-22T02:28:05.121Z,62.74
2023-05-22T02:29:10.285Z,62.74
2023-05-22T02:30:15.688Z,62.84
2023-05-22T02:31:19.979Z,62.91
2023-05-22T02:32:25.815Z,63.23
2023-05-22T02:33:30.079Z,63.01
2023-05-22T02:34:33.842Z,63.32
2023-05-22T02:35:44.348Z,63.33
2023-05-22T02:36:51.511Z,63.37
2023-05-22T02:37:56.995Z,63.53
2023-05-22T02:39:01.888Z,63.33
2023-05-22T02:40:11.199Z,63.70
2023-05-22T02:41:15.274Z,63.70
2023-05-22T02:42:19.742Z,63.73
2023-05-22T02:43:23.942Z,64.03
2023-05-22T02:44:28.333Z,63.98
2023-05-22T02:45:33.399Z,64.43
2023-05-22T02:46:37.906Z,64.14
2023-05-22T02:47:42.914Z,64.31
2023-05-22T02:48:48.359Z,64.53
2023-05-22T02:49:52.014Z,64.34
2023-05-22T02:50:56.502Z,64.44
2023-05-22T02:52:00.177Z,64.42
2023-05-22T02:53:07.510Z,64.70
2023-05-22T02:54:11.702Z,64.67
2023-05-22T02:55:18.441Z,64.67
2023-05-22T02:56:22.172Z,64.84
2023-05-22T02:57:27.447Z,64.93
2023-05-22T02:58:32.111Z,65.01
2023-05-22T02:59:37.780Z,65.11
2023-05-22T03:00:46.954Z,65.04
2023-05-22T03:01:55.746Z,65.10
2023-05-22T03:03:02.742Z,65.21
2023-05-22T03:04:11.166Z,65.27
2023-05-22T03:05:18.635Z,65.37
2023-05-22T03:06:27.311Z,65.28
2023-05-22T03:07:37.064Z,65.25
2023-05-22T03:08:45.378Z,65.30
2023-05-22T03:09:49.646Z,65.30
2023-05-22T03:10:53.747Z,65.19
2023-05-22T03:11:58.442Z,65.28
2023-05-22T03:13:03.454Z,65.25
2023-05-22T03:14:07.032Z,65.20
2023-05-22T03:15:14.810Z,65.05
2023-05-22T03:16:18.127Z,65.08
2023-05-22T03:17:22.868Z,64.94
2023-05-22T03:18:27.640Z,64.99
2023-05-22T03:19:33.170Z,64.92
2023-05-22T03:20:36.676Z,64.94
2023-05-22T03:21:44.704Z,65.10
2023-05-22T03:22:48.152Z,65.02
2023-05-22T03:23:53.695Z,65.04
2023-05-22T03:24:58.711Z,65.20
2023-05-22T03:26:03.674Z,64.98
2023-05-22T03:27:07.697Z,65.01
2023-05-22T03:28:12.558Z,64.90
2023-05-22T03:29:16.857Z,64.94
2023-05-22T03:30:22.046Z,64.86
2023-05-22T03:31:25.831Z,65.00
2023-05-22T03:32:31.343Z,64.98
2023-05-22T03:33:37.575Z,65.02
2023-05-22T03:34:44.269Z,65.10
2023-05-22T03:35:47.856Z,65.20
2023-05-22T03:36:52.247Z,65.00
2023-05-22T03:37:54.950Z,65.25
2023-05-22T03:38:59.143Z,65.04
2023-05-22T03:40:03.570Z,65.18
2023-05-22T03:41:08.198Z,65.36
2023-05-22T03:42:13.514Z,64.85
2023-05-22T03:43:18.017Z,64.96
2023-05-22T03:44:22.337Z,64.96
2023-05-22T03:45:28.493Z,64.93
2023-05-22T03:46:33.440Z,64.93
2023-05-22T03:47:38.113Z,64.75
2023-05-22T03:48:43.823Z,64.85
2023-05-22T03:49:48.354Z,64.90
2023-05-22T03:50:52.232Z,64.98
2023-05-22T03:51:57.768Z,64.87
2023-05-22T03:53:01.795Z,65.02
2023-05-22T03:54:07.193Z,64.90
2023-05-22T03:55:11.197Z,64.69
2023-05-22T03:56:16.651Z,64.58
2023-05-22T03:57:20.891Z,64.63
2023-05-22T03:58:26.968Z,64.83
2023-05-22T03:59:30.288Z,64.72
2023-05-22T04:00:37.031Z,64.55
2023-05-22T04:01:42.493Z,64.52
2023-05-22T04:02:48.321Z,64.46
2023-05-22T04:03:55.036Z,64.56
2023-05-22T04:04:58.325Z,64.83
2023-05-22T04:06:03.480Z,64.45
2023-05-22T04:07:08.663Z,64.46
2023-05-22T04:08:12.604Z,64.58
2023-05-22T04:09:17.230Z,64.68
2023-05-22T04:10:23.608Z,64.64
2023-05-22T04:11:30.709Z,64.50
2023-05-22T04:12:35.538Z,64.51
2023-05-22T04:13:39.378Z,64.35
2023-05-22T04:14:43.793Z,64.22
2023-05-22T04:15:47.444Z,64.22
2023-05-22T04:16:51.924Z,64.40
2023-05-22T04:17:55.481Z,64.33
2023-05-22T04:19:03.631Z,64.05
2023-05-22T04:20:09.690Z,64.25
2023-05-22T04:21:15.009Z,63.96
2023-05-22T04:22:19.218Z,63.87
2023-05-22T04:23:25.178Z,63.73
2023-05-22T04:24:29.386Z,63.73
2023-05-22T04:25:35.268Z,63.54
2023-05-22T04:26:42.570Z,63.51
2023-05-22T04:27:49.397Z,63.65
2023-05-22T04:28:54.334Z,63.18
2023-05-22T04:30:00.605Z,63.21
2023-05-22T04:31:07.203Z,62.97
2023-05-22T04:32:12.609Z,62.94
2023-05-22T04:33:18.599Z,62.93
2023-05-22T04:34:30.716Z,62.93
2023-05-22T04:35:34.921Z,62.91
2023-05-22T04:36:39.623Z,62.85
2023-05-22T04:37:46.601Z,62.82
2023-05-22T04:38:52.790Z,62.30
2023-05-22T04:39:58.565Z,62.50
2023-05-22T04:41:03.019Z,62.13
2023-05-22T04:42:07.310Z,62.14
2023-05-22T04:43:13.651Z,61.89
2023-05-22T04:44:17.587Z,61.99
2023-05-22T04:45:26.435Z,61.63
2023-05-22T04:46:31.334Z,61.74
2023-05-22T04:47:39.477Z,61.88
2023-05-22T04:48:44.743Z,61.60
2023-05-22T04:49:53.683Z,61.59
2023-05-22T04:50:58.437Z,61.10
2023-05-22T04:52:04.936Z,61.07
2023-05-22T04:53:09.882Z,61.06
2023-05-22T04:54:13.517Z,61.23
2023-05-22T04:55:20.049Z,61.16
2023-05-22T04:56:35.461Z,60.89
2023-05-22T04:57:41.850Z,60.69
2023-05-22T04:58:45.220Z,60.94
2023-05-22T04:59:50.110Z,60.71
2023-05-22T05:00:54.323Z,60.59
2023-05-22T05:01:59.323Z,60.65
2023-05-22T05:03:03.349Z,60.85
2023-05-22T05:04:08.561Z,60.81
2023-05-22T05:05:13.977Z,61.00
2023-05-22T05:06:21.701Z,60.97
2023-05-22T05:07:26.790Z,60.88
2023-05-22T05:08:31.518Z,60.68
2023-05-22T05:09:35.369Z,61.03
2023-05-22T05:10:41.751Z,60.57
2023-05-22T05:11:44.849Z,61.02
2023-05-22T05:12:50.246Z,60.81
2023-05-22T05:13:53.463Z,60.68
2023-05-22T05:14:58.173Z,60.47
2023-05-22T05:16:03.850Z,60.24
2023-05-22T05:17:08.493Z,60.81
2023-05-22T05:18:13.026Z,60.68
2023-05-22T05:19:18.315Z,60.23
2023-05-22T05:20:24.966Z,60.00
2023-05-22T05:21:31.878Z,60.24
2023-05-22T05:22:35.417Z,60.20
2023-05-22T05:23:40.486Z,60.16
2023-05-22T05:24:44.043Z,59.90
2023-05-22T05:25:50.034Z,59.59
2023-05-22T05:26:54.171Z,59.13
2023-05-22T05:28:01.253Z,58.91
2023-05-22T05:29:04.307Z,58.85
2023-05-22T05:30:11.834Z,58.59
2023-05-22T05:31:16.811Z,58.22
2023-05-22T05:32:21.681Z,58.48
2023-05-22T05:33:25.125Z,58.20
2023-05-22T05:34:31.205Z,57.77
2023-05-22T05:35:37.227Z,57.48
2023-05-22T05:36:42.136Z,56.70
2023-05-22T05:37:46.299Z,56.12
2023-05-22T05:38:51.428Z,55.21
2023-05-22T05:39:57.156Z,54.36
2023-05-22T05:41:03.464Z,53.29
2023-05-22T05:42:08.289Z,52.26
2023-05-22T05:43:14.494Z,51.19
2023-05-22T05:44:19.590Z,50.36
2023-05-22T05:45:25.420Z,49.63
2023-05-22T05:46:30.696Z,48.81
2023-05-22T05:47:35.293Z,48.24
2023-05-22T05:48:40.715Z,47.72
2023-05-22T05:49:45.165Z,46.94
2023-05-22T05:50:51.382Z,46.46
2023-05-22T05:51:55.924Z,45.44
2023-05-22T05:53:01.932Z,45.13
2023-05-22T05:54:07.750Z,44.87
2023-05-22T05:55:13.631Z,44.25
2023-05-22T05:56:18.763Z,43.41
2023-05-22T05:57:22.477Z,43.83
2023-05-22T05:58:26.492Z,42.73
2023-05-22T05:59:32.726Z,42.86
2023-05-22T06:00:37.036Z,42.22
2023-05-22T06:01:46.272Z,41.94
2023-05-22T06:02:51.161Z,41.44
2023-05-22T06:03:56.388Z,40.61
2023-05-22T06:05:00.536Z,40.34
2023-05-22T06:06:08.475Z,40.17
2023-05-22T06:07:13.335Z,40.05
2023-05-22T06:08:20.398Z,39.99
2023-05-22T06:09:24.921Z,39.47
2023-05-22T06:10:30.506Z,38.76
2023-05-22T06:11:35.521Z,38.67
2023-05-22T06:12:39.496Z,38.93
2023-05-22T06:13:43.732Z,38.67
2023-05-22T06:14:49.027Z,37.77
2023-05-22T06:15:53.165Z,37.86
2023-05-22T06:16:58.149Z,37.21
2023-05-22T06:18:03.998Z,36.78
2023-05-22T06:19:09.697Z,37.13
2023-05-22T06:20:16.906Z,36.74
2023-05-22T06:21:23.220Z,36.84
2023-05-22T06:22:29.270Z,36.06
2023-05-22T06:23:32.521Z,36.00
2023-05-22T06:24:37.792Z,35.30
2023-05-22T06:25:41.144Z,35.61
2023-05-22T06:26:45.753Z,35.42
2023-05-22T06:27:52.056Z,34.81
2023-05-22T06:28:58.031Z,34.21
2023-05-22T06:30:04.649Z,34.83
2023-05-22T06:31:11.475Z,34.64
2023-05-22T06:32:15.641Z,33.84
2023-05-22T06:33:22.037Z,33.37
2023-05-22T06:34:28.021Z,33.01
2023-05-22T06:35:33.065Z,33.57
2023-05-22T06:36:40.452Z,33.32
2023-05-22T06:37:47.227Z,33.39
2023-05-22T06:38:52.285Z,32.52
2023-05-22T06:39:56.548Z,33.00
2023-05-22T06:41:02.232Z,32.51
2023-05-22T06:42:08.035Z,32.32
2023-05-22T06:43:14.015Z,32.10
2023-05-22T06:44:18.534Z,31.67
2023-05-22T06:45:23.085Z,31.48
2023-05-22T06:46:28.477Z,31.51
2023-05-22T06:47:32.967Z,31.55
2023-05-22T06:48:37.282Z,31.34
2023-05-22T06:49:40.645Z,31.39
2023-05-22T06:50:45.446Z,31.00
2023-05-22T06:51:51.709Z,31.44
2023-05-22T06:52:55.349Z,31.55
2023-05-22T06:54:00.989Z,30.89
2023-05-22T06:55:05.965Z,30.67
2023-05-22T06:56:13.200Z,31.06
2023-05-22T06:57:18.417Z,30.85
2023-05-22T06:58:23.133Z,31.53
2023-05-22T06:59:29.281Z,32.21
2023-05-22T07:03:24.648Z,34.85
2023-05-22T07:04:29.590Z,34.14
2023-05-22T07:05:34.154Z,33.59
2023-05-22T07:06:41.239Z,33.75
2023-05-22T07:07:48.034Z,32.06
2023-05-22T07:08:52.991Z,31.81
2023-05-22T07:09:58.933Z,31.88
2023-05-22T07:11:07.035Z,31.67
2023-05-22T07:12:13.474Z,31.43
2023-05-22T07:13:17.799Z,31.12
2023-05-22T07:14:23.630Z,31.88
2023-05-22T07:15:28.541Z,33.25
2023-05-22T07:16:37.645Z,32.89
2023-05-22T07:17:46.185Z,32.17
2023-05-22T07:18:54.800Z,32.17
2023-05-22T07:20:00.764Z,32.68
2023-05-22T07:21:12.598Z,33.52
2023-05-22T07:22:17.639Z,34.50
2023-05-22T07:23:27.761Z,33.82
2023-05-22T07:24:32.044Z,33.42
2023-05-22T07:25:37.132Z,32.78
2023-05-22T07:26:47.196Z,32.89
2023-05-22T07:27:52.389Z,32.03
2023-05-22T07:28:56.320Z,31.31
2023-05-22T07:30:02.809Z,31.05
2023-05-22T07:31:08.197Z,30.61
2023-05-22T07:32:12.724Z,30.16
2023-05-22T07:33:17.930Z,29.73
2023-05-22T07:34:23.791Z,28.32
2023-05-22T07:35:30.559Z,27.88
2023-05-22T07:36:35.690Z,27.04
2023-05-22T07:37:41.993Z,26.42
2023-05-22T07:38:50.502Z,26.80
2023-05-22T07:39:56.773Z,26.16
2023-05-22T07:41:01.163Z,26.27
2023-05-22T07:42:06.535Z,25.01
2023-05-22T07:43:12.254Z,25.92
2023-05-22T07:44:17.657Z,25.52
2023-05-22T07:45:22.827Z,25.27
2023-05-22T07:46:30.921Z,24.48
2023-05-22T07:47:35.673Z,24.38
2023-05-22T07:48:42.447Z,24.88
2023-05-22T07:49:47.029Z,24.04
2023-05-22T07:50:52.046Z,24.04
2023-05-22T07:51:57.492Z,24.25
2023-05-22T07:53:02.272Z,24.54
2023-05-22T07:54:08.968Z,24.69
2023-05-22T07:55:14.310Z,24.71
2023-05-22T07:56:19.316Z,24.00
2023-05-22T07:57:25.096Z,23.74
2023-05-22T07:58:28.905Z,23.73
2023-05-22T07:59:34.209Z,23.93
2023-05-22T08:00:38.771Z,24.47
2023-05-22T08:01:43.869Z,23.52
2023-05-22T08:02:49.598Z,23.58
2023-05-22T08:03:55.034Z,23.15
2023-05-22T08:05:02.280Z,22.77
2023-05-22T08:06:07.116Z,22.43
2023-05-22T08:07:12.194Z,22.57
2023-05-22T08:08:17.324Z,23.65
2023-05-22T08:09:24.103Z,23.47
2023-05-22T08:10:46.505Z,23.32
2023-05-22T08:11:51.843Z,23.18
2023-05-22T08:12:59.127Z,22.88
2023-05-22T08:14:04.260Z,22.55
2023-05-22T08:15:09.679Z,22.61
2023-05-22T08:16:17.636Z,22.58
2023-05-22T08:17:23.901Z,22.82
2023-05-22T08:18:30.022Z,23.47
2023-05-22T08:19:36.975Z,23.28
2023-05-22T08:20:42.988Z,22.55
2023-05-22T08:21:46.889Z,22.48
2023-05-22T08:22:54.034Z,22.76
2023-05-22T08:23:57.424Z,23.69
2023-05-22T08:25:03.449Z,24.08
2023-05-22T08:26:10.009Z,23.66
2023-05-22T08:27:14.958Z,23.33
2023-05-22T08:28:19.541Z,23.63
2023-05-22T08:29:24.046Z,23.37
2023-05-22T08:30:34.707Z,23.06
2023-05-22T08:31:42.061Z,22.70
2023-05-22T08:32:46.053Z,22.19
2023-05-22T08:33:50.275Z,22.37
2023-05-22T08:34:56.297Z,22.64
2023-05-22T08:36:04.135Z,22.49
2023-05-22T08:37:09.758Z,22.54
2023-05-22T08:38:14.706Z,22.20
2023-05-22T08:39:20.726Z,22.17
2023-05-22T08:40:39.457Z,22.33
2023-05-22T08:41:44.574Z,21.98
2023-05-22T08:42:51.718Z,22.30
2023-05-22T08:43:59.279Z,22.83
2023-05-22T08:45:04.188Z,22.64
2023-05-22T08:46:10.057Z,22.71
2023-05-22T08:47:16.282Z,22.48
2023-05-22T08:48:22.805Z,22.48
2023-05-22T08:49:28.973Z,22.27
2023-05-22T08:50:54.770Z,22.08
2023-05-22T08:52:09.041Z,22.71
2023-05-22T08:53:14.485Z,22.18
2023-05-22T08:54:24.366Z,21.79
2023-05-22T08:55:34.035Z,21.56
2023-05-22T08:56:52.969Z,21.52
2023-05-22T08:58:02.470Z,21.84
2023-05-22T08:59:09.289Z,21.88
2023-05-22T09:00:15.832Z,22.53
2023-05-22T09:01:23.290Z,21.99
2023-05-22T09:02:30.750Z,21.96
2023-05-22T09:03:40.861Z,21.60
2023-05-22T09:04:47.964Z,21.33
2023-05-22T09:05:53.946Z,21.37
2023-05-22T09:06:58.257Z,21.53
2023-05-22T09:08:19.003Z,21.72
2023-05-22T09:09:24.480Z,21.71
2023-05-22T09:10:30.477Z,21.47
2023-05-22T09:11:36.207Z,21.92
2023-05-22T09:13:03.017Z,21.71
2023-05-22T09:14:11.218Z,21.79
2023-05-22T09:15:20.971Z,22.87
2023-05-22T09:16:27.607Z,22.93
2023-05-22T09:17:30.918Z,23.31
2023-05-22T09:18:38.641Z,22.43
2023-05-22T09:19:47.290Z,22.60
2023-05-22T09:20:54.926Z,22.45
2023-05-22T09:22:05.945Z,22.57
2023-05-22T09:23:16.019Z,22.88
2023-05-22T09:24:21.739Z,23.51
2023-05-22T09:25:26.937Z,23.66
2023-05-22T09:26:34.079Z,23.63
2023-05-22T09:27:42.394Z,23.48
2023-05-22T09:28:50.207Z,23.63
2023-05-22T09:29:59.620Z,24.11
2023-05-22T09:31:07.231Z,24.33
2023-05-22T09:32:18.818Z,23.97
2023-05-22T09:33:24.603Z,24.76
2023-05-22T09:34:33.508Z,25.42
2023-05-22T09:35:42.911Z,25.05
2023-05-22T09:36:49.862Z,25.11
2023-05-22T09:37:58.638Z,25.74
2023-05-22T09:39:04.844Z,25.37
2023-05-22T09:40:14.938Z,26.05
2023-05-22T09:41:23.083Z,26.65
2023-05-22T09:42:32.488Z,27.37
2023-05-22T09:43:37.698Z,26.55
2023-05-22T09:44:44.636Z,27.19
2023-05-22T09:45:50.573Z,27.42
2023-05-22T09:46:56.487Z,27.55
2023-05-22T09:48:27.559Z,26.75
2023-05-22T09:49:45.609Z,27.46
2023-05-22T09:51:00.675Z,29.13
2023-05-22T09:52:21.288Z,28.45
2023-05-22T09:53:46.671Z,27.87
2023-05-22T09:54:55.705Z,28.75
2023-05-22T09:56:03.099Z,29.52
2023-05-22T09:57:12.375Z,31.20
2023-05-22T09:58:22.344Z,31.56
2023-05-22T09:59:32.488Z,32.13
2023-05-22T10:00:38.741Z,32.13
2023-05-22T10:01:46.550Z,32.14
2023-05-22T10:02:55.548Z,32.31
2023-05-22T10:04:01.176Z,32.13
2023-05-22T10:05:07.530Z,32.81
2023-05-22T10:06:14.565Z,31.75
2023-05-22T10:07:22.943Z,31.95
2023-05-22T10:08:30.060Z,33.52
2023-05-22T10:09:41.315Z,34.12
2023-05-22T10:10:53.340Z,33.81
2023-05-22T10:12:06.122Z,33.89
2023-05-22T10:13:13.930Z,33.36
2023-05-22T10:14:25.810Z,32.53
2023-05-22T10:15:34.005Z,32.35
2023-05-22T10:16:39.750Z,33.63
2023-05-22T10:17:47.361Z,33.44
2023-05-22T10:18:53.439Z,32.39
2023-05-22T10:19:59.310Z,31.40
2023-05-22T10:21:09.562Z,32.79
2023-05-22T10:22:21.469Z,33.71
2023-05-22T10:23:29.952Z,33.17
2023-05-22T10:24:36.775Z,33.61
2023-05-22T10:25:42.076Z,34.35
2023-05-22T10:26:47.383Z,34.10
2023-05-22T10:27:56.844Z,34.89
2023-05-22T10:29:09.977Z,35.58
2023-05-22T10:30:26.324Z,36.10
2023-05-22T10:31:46.269Z,35.64
2023-05-22T10:32:58.799Z,34.79
2023-05-22T10:34:10.308Z,33.69
2023-05-22T10:35:23.031Z,33.56
2023-05-22T10:36:47.607Z,33.15
2023-05-22T10:38:00.554Z,32.94
2023-05-22T10:39:22.386Z,31.79
2023-05-22T10:40:32.750Z,32.63
2023-05-22T10:41:37.542Z,34.15
2023-05-22T10:42:43.794Z,35.20
2023-05-22T10:43:52.905Z,35.55
2023-05-22T10:44:58.161Z,35.51
2023-05-22T10:46:10.551Z,35.11
2023-05-22T10:47:16.464Z,34.96
2023-05-22T10:48:25.456Z,35.23
2023-05-22T10:49:32.056Z,35.57
2023-05-22T10:50:37.267Z,36.41
2023-05-22T10:51:41.508Z,36.53
2023-05-22T10:52:46.629Z,36.01
2023-05-22T10:53:55.260Z,34.88
2023-05-22T10:55:01.612Z,35.44
2023-05-22T10:56:14.789Z,36.53
2023-05-22T10:57:19.693Z,37.02
2023-05-22T10:58:29.037Z,37.17
2023-05-22T10:59:36.424Z,37.76
2023-05-22T11:00:41.813Z,37.13
2023-05-22T11:01:49.813Z,37.59
2023-05-22T11:03:17.217Z,37.61
2023-05-22T11:04:27.881Z,36.69
2023-05-22T11:05:35.552Z,36.57
2023-05-22T11:06:45.265Z,37.63
2023-05-22T11:07:51.089Z,38.40
2023-05-22T11:08:59.792Z,38.05
2023-05-22T11:10:08.876Z,38.22
2023-05-22T11:11:15.676Z,37.76
2023-05-22T11:12:27.378Z,37.49
2023-05-22T11:13:33.835Z,37.23
2023-05-22T11:14:42.105Z,37.26
2023-05-22T11:15:49.157Z,36.51
2023-05-22T11:17:05.292Z,35.89
2023-05-22T11:18:12.241Z,35.86
2023-05-22T11:19:23.733Z,35.20
2023-05-22T11:20:31.559Z,36.41
2023-05-22T11:21:38.217Z,36.37
2023-05-22T11:22:45.900Z,36.00
2023-05-22T11:23:50.809Z,35.53
2023-05-22T11:24:56.661Z,35.20
2023-05-22T11:26:20.555Z,35.25
2023-05-22T11:27:25.793Z,34.82
2023-05-22T11:28:33.073Z,35.47
2023-05-22T11:29:37.684Z,35.06
2023-05-22T11:30:43.233Z,35.04
2023-05-22T11:31:50.039Z,34.15
2023-05-22T11:32:57.231Z,34.74
2023-05-22T11:34:05.181Z,34.76
2023-05-22T11:35:10.746Z,34.88
2023-05-22T11:36:15.205Z,35.21
2023-05-22T11:37:21.762Z,34.85
2023-05-22T11:38:30.139Z,35.32
2023-05-22T11:39:34.272Z,36.35
2023-05-22T11:40:41.387Z,36.46
2023-05-22T11:41:45.779Z,37.02
2023-05-22T11:42:51.935Z,37.80
2023-05-22T11:43:57.435Z,38.19
2023-05-22T11:45:03.137Z,38.39
2023-05-22T11:46:08.910Z,38.75
2023-05-22T11:47:13.717Z,38.92
2023-05-22T11:48:22.590Z,38.49
2023-05-22T11:49:30.417Z,38.51
2023-05-22T11:50:42.146Z,38.04
2023-05-22T11:51:50.988Z,38.37
2023-05-22T11:52:59.947Z,38.37
2023-05-22T11:54:05.639Z,38.85
2023-05-22T11:55:11.231Z,39.47
2023-05-22T11:56:15.582Z,40.74
2023-05-22T11:57:22.398Z,44.66
2023-05-22T11:58:31.403Z,48.71
2023-05-22T11:59:37.398Z,51.78
2023-05-22T12:00:41.556Z,53.90
2023-05-22T12:01:48.042Z,55.46
2023-05-22T12:02:54.433Z,55.23
2023-05-22T12:04:02.543Z,54.23
2023-05-22T12:05:10.724Z,54.04
2023-05-22T12:06:17.830Z,53.18
2023-05-22T12:07:24.546Z,53.15
2023-05-22T12:08:29.734Z,52.87
2023-05-22T12:09:37.193Z,51.98
2023-05-22T12:10:50.175Z,50.83
2023-05-22T12:11:58.412Z,50.02
2023-05-22T12:13:03.340Z,49.54
2023-05-22T12:14:07.604Z,48.83
2023-05-22T12:15:12.987Z,48.17
2023-05-22T12:16:22.434Z,47.39
2023-05-22T12:17:26.969Z,46.99
2023-05-22T12:18:37.232Z,46.77
2023-05-22T12:19:43.642Z,47.05
2023-05-22T12:20:53.672Z,47.08
2023-05-22T12:21:59.315Z,46.72
2023-05-22T12:23:04.131Z,46.75
2023-05-22T12:24:10.541Z,47.49
2023-05-22T12:25:18.317Z,48.22
2023-05-22T12:26:23.397Z,49.06
2023-05-22T12:27:34.167Z,49.45
2023-05-22T12:28:41.673Z,50.86
2023-05-22T12:29:46.461Z,51.86
2023-05-22T12:30:54.963Z,52.33
2023-05-22T12:32:04.910Z,52.11
2023-05-22T12:33:14.935Z,52.77
2023-05-22T12:34:24.300Z,52.25
2023-05-22T12:35:31.711Z,52.04
2023-05-22T12:36:38.561Z,51.98
2023-05-22T12:37:48.209Z,50.97
2023-05-22T12:38:58.019Z,50.53
2023-05-22T12:40:06.065Z,50.38
2023-05-22T12:41:11.605Z,49.65
2023-05-22T12:42:16.285Z,48.74
2023-05-22T12:43:24.315Z,47.67
2023-05-22T12:44:29.653Z,47.51
2023-05-22T12:45:34.928Z,47.03
2023-05-22T12:46:43.646Z,46.92
2023-05-22T12:47:46.953Z,47.44
2023-05-22T12:48:51.517Z,46.86
2023-05-22T12:49:55.986Z,46.51
2023-05-22T12:51:03.091Z,46.81
2023-05-22T12:52:09.245Z,47.41
2023-05-22T12:53:14.509Z,46.63
2023-05-22T12:54:19.053Z,47.19
2023-05-22T12:55:24.096Z,47.25
2023-05-22T12:56:29.365Z,46.94
2023-05-22T12:57:33.784Z,46.22
2023-05-22T12:58:38.636Z,45.31
2023-05-22T12:59:43.211Z,44.93
2023-05-22T13:00:47.823Z,44.56
2023-05-22T13:01:51.489Z,44.34
2023-05-22T13:02:57.272Z,44.16
2023-05-22T13:04:03.441Z,44.17
2023-05-22T13:05:10.218Z,44.54
2023-05-22T13:06:18.517Z,44.57
2023-05-22T13:07:24.259Z,43.96
2023-05-22T13:08:31.632Z,43.31
2023-05-22T13:09:37.062Z,43.28
2023-05-22T13:10:44.873Z,43.02
2023-05-22T13:11:50.941Z,42.93
2023-05-22T13:12:55.753Z,42.77
2023-05-22T13:13:59.898Z,42.97
2023-05-22T13:15:06.312Z,42.70
2023-05-22T13:16:13.213Z,42.69
2023-05-22T13:17:16.627Z,42.82
2023-05-22T13:18:23.161Z,42.67
2023-05-22T13:19:27.405Z,42.41
2023-05-22T13:20:33.632Z,42.37
2023-05-22T13:21:39.079Z,42.51
2023-05-22T13:22:43.510Z,42.30
2023-05-22T13:23:47.833Z,42.15
2023-05-22T13:24:53.230Z,42.43
2023-05-22T13:25:58.745Z,42.40
2023-05-22T13:27:03.005Z,42.22
2023-05-22T13:28:09.388Z,42.22
2023-05-22T13:29:14.438Z,42.23
2023-05-22T13:30:20.867Z,42.43
2023-05-22T13:31:25.003Z,42.44
2023-05-22T13:32:30.127Z,43.18
2023-05-22T13:33:35.371Z,43.13
2023-05-22T13:34:45.360Z,43.69
2023-05-22T13:35:51.218Z,43.53
2023-05-22T13:36:57.724Z,43.78
2023-05-22T13:38:03.818Z,43.65
2023-05-22T13:39:10.265Z,44.09
2023-05-22T13:40:20.754Z,44.16
2023-05-22T13:41:27.200Z,44.20
2023-05-22T13:42:35.426Z,44.57
2023-05-22T13:43:40.608Z,44.64
2023-05-22T13:44:45.299Z,44.74
2023-05-22T13:45:49.373Z,45.04
2023-05-22T13:46:54.589Z,44.62
2023-05-22T13:48:00.178Z,44.53
2023-05-22T13:49:06.167Z,44.46
2023-05-22T13:50:12.010Z,44.25
2023-05-22T13:51:18.072Z,44.35
2023-05-22T13:52:24.169Z,43.51
2023-05-22T13:53:28.676Z,43.15
2023-05-22T13:54:35.503Z,42.94
2023-05-22T13:55:40.053Z,42.72
2023-05-22T13:56:45.627Z,42.65
2023-05-22T13:57:51.135Z,42.78
2023-05-22T13:58:56.179Z,43.19
2023-05-22T14:00:02.802Z,42.43
2023-05-22T14:01:08.766Z,42.35
2023-05-22T14:02:12.699Z,42.84
2023-05-22T14:03:19.145Z,42.28
2023-05-22T14:04:23.040Z,42.41
2023-05-22T14:05:28.390Z,41.95
2023-05-22T14:06:32.476Z,41.86
2023-05-22T14:07:39.829Z,41.59
2023-05-22T14:08:43.846Z,41.62
2023-05-22T14:09:49.081Z,41.65
2023-05-22T14:10:54.183Z,41.83
2023-05-22T14:12:03.703Z,41.81
2023-05-22T14:13:09.482Z,42.45
2023-05-22T14:14:15.149Z,42.55
2023-05-22T14:15:20.080Z,42.67
2023-05-22T14:16:27.770Z,42.82
2023-05-22T14:17:33.820Z,42.99
2023-05-22T14:18:38.474Z,43.11
2023-05-22T14:19:43.445Z,43.13
2023-05-22T14:20:47.472Z,43.25
2023-05-22T14:21:55.833Z,43.97
2023-05-22T14:23:03.754Z,44.07
2023-05-22T14:24:08.962Z,44.22